Terminal Aerodrome Forecast
Issued by NWS Cleveland, OH

Home | Current Version | Previous Version | Graphics & Text | Print | Product List | Glossary On
Versions: 1 2 3 4 5 6 7 8 9 10 11 12 13 14 15 16 17 18 19 20 21 22 23 24 25 26 27 28 29 30 31 32 33 34 35
000
FTUS41 KCLE 211600 AAA
TAFYNG
TAF AMD
KYNG 211623Z 2116/2212 23008KT P6SM BKN018 BKN050
      TEMPO 2116/2118 SCT018 BKN035 BKN100
     FM211800 24008KT P6SM SCT018 BKN035
     FM212000 24008KT P6SM VCSH SCT035 BKN100
      TEMPO 2120/2124 2SM TSRA BR SCT015 OVC025CB
     FM220000 23004KT P6SM SCT035 BKN100=

USA.gov is the U.S. government's official web portal to all federal, state and local government web resources and services.